sensor_id;sensor_type;location;lat;lon;timestamp;temperature;humidity
49829;DHT22;35723;51.194;5.112;2023-03-01T00:02:20;3.20;99.90
49829;DHT22;35723;51.194;5.112;2023-03-01T00:04:46;3.20;99.90
49829;DHT22;35723;51.194;5.112;2023-03-01T00:07:12;3.00;99.90
49829;DHT22;35723;51.194;5.112;2023-03-01T00:09:37;3.00;99.90
49829;DHT22;35723;51.194;5.112;2023-03-01T00:12:04;3.00;99.90
49829;DHT22;35723;51.194;5.112;2023-03-01T00:14:29;3.00;99.90
49829;DHT22;35723;51.194;5.112;2023-03-01T00:16:55;2.90;99.90
49829;DHT22;35723;51.194;5.112;2023-03-01T00:19:21;2.90;99.90
49829;DHT22;35723;51.194;5.112;2023-03-01T00:21:49;2.90;99.90
49829;DHT22;35723;51.194;5.112;2023-03-01T00:24:15;2.90;99.90
49829;DHT22;35723;51.194;5.112;2023-03-01T00:26:41;2.90;99.90
49829;DHT22;35723;51.194;5.112;2023-03-01T00:29:06;2.90;99.90
49829;DHT22;35723;51.194;5.112;2023-03-01T00:31:33;2.80;99.90
49829;DHT22;35723;51.194;5.112;2023-03-01T00:34:04;2.80;99.90
49829;DHT22;35723;51.194;5.112;2023-03-01T00:36:33;2.70;99.90
49829;DHT22;35723;51.194;5.112;2023-03-01T00:39:00;2.70;99.90
49829;DHT22;35723;51.194;5.112;2023-03-01T00:41:26;2.70;99.90
49829;DHT22;35723;51.194;5.112;2023-03-01T00:43:52;2.80;99.90
49829;DHT22;35723;51.194;5.112;2023-03-01T00:46:22;2.70;99.90
49829;DHT22;35723;51.194;5.112;2023-03-01T00:48:48;2.60;99.90
49829;DHT22;35723;51.194;5.112;2023-03-01T00:51:15;2.70;99.90
49829;DHT22;35723;51.194;5.112;2023-03-01T00:53:41;2.70;99.90
49829;DHT22;35723;51.194;5.112;2023-03-01T00:56:09;2.80;99.90
49829;DHT22;35723;51.194;5.112;2023-03-01T00:58:35;2.70;99.90
49829;DHT22;35723;51.194;5.112;2023-03-01T01:01:10;2.70;99.90
49829;DHT22;35723;51.194;5.112;2023-03-01T01:03:44;2.70;99.90
49829;DHT22;35723;51.194;5.112;2023-03-01T01:06:21;2.80;99.90
49829;DHT22;35723;51.194;5.112;2023-03-01T01:08:48;2.90;99.90
49829;DHT22;35723;51.194;5.112;2023-03-01T01:11:15;2.90;99.90
49829;DHT22;35723;51.194;5.112;2023-03-01T01:13:43;2.80;99.90
49829;DHT22;35723;51.194;5.112;2023-03-01T01:16:08;2.80;99.90
49829;DHT22;35723;51.194;5.112;2023-03-01T01:18:34;2.80;99.90
49829;DHT22;35723;51.194;5.112;2023-03-01T01:21:12;2.90;99.90
49829;DHT22;35723;51.194;5.112;2023-03-01T01:23:39;2.90;99.90
49829;DHT22;35723;51.194;5.112;2023-03-01T01:26:13;2.90;99.90
49829;DHT22;35723;51.194;5.112;2023-03-01T01:28:39;3.00;99.90
49829;DHT22;35723;51.194;5.112;2023-03-01T01:31:06;3.00;99.90
49829;DHT22;35723;51.194;5.112;2023-03-01T01:33:32;3.00;99.90
49829;DHT22;35723;51.194;5.112;2023-03-01T01:35:58;3.00;99.90
49829;DHT22;35723;51.194;5.112;2023-03-01T01:38:24;3.00;99.90
49829;DHT22;35723;51.194;5.112;2023-03-01T01:40:51;3.10;99.90
49829;DHT22;35723;51.194;5.112;2023-03-01T01:43:29;3.00;99.90
49829;DHT22;35723;51.194;5.112;2023-03-01T01:45:58;3.10;99.90
49829;DHT22;35723;51.194;5.112;2023-03-01T01:51:32;3.00;99.90
49829;DHT22;35723;51.194;5.112;2023-03-01T01:54:08;3.10;99.90
49829;DHT22;35723;51.194;5.112;2023-03-01T01:56:36;3.10;99.90
49829;DHT22;35723;51.194;5.112;2023-03-01T01:59:03;3.00;99.90
49829;DHT22;35723;51.194;5.112;2023-03-01T02:01:29;3.00;99.90
49829;DHT22;35723;51.194;5.112;2023-03-01T02:03:54;3.00;99.90
49829;DHT22;35723;51.194;5.112;2023-03-01T02:06:31;2.90;99.90
49829;DHT22;35723;51.194;5.112;2023-03-01T02:09:03;3.00;99.90
49829;DHT22;35723;51.194;5.112;2023-03-01T02:11:33;3.00;99.90
49829;DHT22;35723;51.194;5.112;2023-03-01T02:13:59;2.90;99.90
49829;DHT22;35723;51.194;5.112;2023-03-01T02:16:26;2.90;99.90
49829;DHT22;35723;51.194;5.112;2023-03-01T02:18:52;2.80;99.90
49829;DHT22;35723;51.194;5.112;2023-03-01T02:26:55;2.90;99.90
49829;DHT22;35723;51.194;5.112;2023-03-01T02:29:23;2.90;99.90
49829;DHT22;35723;51.194;5.112;2023-03-01T02:31:51;2.90;99.90
49829;DHT22;35723;51.194;5.112;2023-03-01T02:34:20;2.80;99.90
49829;DHT22;35723;51.194;5.112;2023-03-01T02:36:49;2.80;99.90
49829;DHT22;35723;51.194;5.112;2023-03-01T02:39:28;2.70;99.90
49829;DHT22;35723;51.194;5.112;2023-03-01T02:41:56;2.70;99.90
49829;DHT22;35723;51.194;5.112;2023-03-01T02:44:24;2.60;99.90
49829;DHT22;35723;51.194;5.112;2023-03-01T02:46:52;2.60;99.90
49829;DHT22;35723;51.194;5.112;2023-03-01T02:49:28;2.50;99.90
49829;DHT22;35723;51.194;5.112;2023-03-01T02:52:26;2.50;99.90
49829;DHT22;35723;51.194;5.112;2023-03-01T02:55:06;2.40;99.90
49829;DHT22;35723;51.194;5.112;2023-03-01T02:57:35;2.30;99.90
49829;DHT22;35723;51.194;5.112;2023-03-01T03:00:09;2.30;99.90
49829;DHT22;35723;51.194;5.112;2023-03-01T03:02:36;2.30;99.90
49829;DHT22;35723;51.194;5.112;2023-03-01T03:05:16;2.30;99.90
49829;DHT22;35723;51.194;5.112;2023-03-01T03:07:43;2.20;99.90
49829;DHT22;35723;51.194;5.112;2023-03-01T03:10:15;2.20;99.90
49829;DHT22;35723;51.194;5.112;2023-03-01T03:12:42;2.20;99.90
49829;DHT22;35723;51.194;5.112;2023-03-01T03:15:09;2.20;99.90
49829;DHT22;35723;51.194;5.112;2023-03-01T03:17:39;2.20;99.90
49829;DHT22;35723;51.194;5.112;2023-03-01T03:20:05;2.20;99.90
49829;DHT22;35723;51.194;5.112;2023-03-01T03:22:36;2.20;99.90
49829;DHT22;35723;51.194;5.112;2023-03-01T03:25:03;2.10;99.90
49829;DHT22;35723;51.194;5.112;2023-03-01T03:27:28;2.10;99.90
49829;DHT22;35723;51.194;5.112;2023-03-01T03:29:54;2.20;99.90
49829;DHT22;35723;51.194;5.112;2023-03-01T03:32:19;2.20;99.90
49829;DHT22;35723;51.194;5.112;2023-03-01T03:34:45;2.20;99.90
49829;DHT22;35723;51.194;5.112;2023-03-01T03:37:11;2.20;99.90
49829;DHT22;35723;51.194;5.112;2023-03-01T03:39:56;2.20;99.90
49829;DHT22;35723;51.194;5.112;2023-03-01T03:42:22;2.20;99.90
49829;DHT22;35723;51.194;5.112;2023-03-01T03:44:48;2.20;99.90
49829;DHT22;35723;51.194;5.112;2023-03-01T03:47:13;2.10;99.90
49829;DHT22;35723;51.194;5.112;2023-03-01T03:49:39;2.10;99.90
49829;DHT22;35723;51.194;5.112;2023-03-01T03:52:05;2.10;99.90
49829;DHT22;35723;51.194;5.112;2023-03-01T03:54:39;2.00;99.90
49829;DHT22;35723;51.194;5.112;2023-03-01T03:57:06;2.00;99.90
49829;DHT22;35723;51.194;5.112;2023-03-01T03:59:31;2.10;99.90
49829;DHT22;35723;51.194;5.112;2023-03-01T04:01:57;2.00;99.90
49829;DHT22;35723;51.194;5.112;2023-03-01T04:04:22;2.00;99.90
49829;DHT22;35723;51.194;5.112;2023-03-01T04:06:48;2.10;99.90
49829;DHT22;35723;51.194;5.112;2023-03-01T04:09:14;2.20;99.90
49829;DHT22;35723;51.194;5.112;2023-03-01T04:11:39;2.20;99.90
49829;DHT22;35723;51.194;5.112;2023-03-01T04:14:05;2.30;99.90
49829;DHT22;35723;51.194;5.112;2023-03-01T04:16:31;2.30;99.90
49829;DHT22;35723;51.194;5.112;2023-03-01T04:18:56;2.30;99.90
49829;DHT22;35723;51.194;5.112;2023-03-01T04:21:25;2.20;99.90
49829;DHT22;35723;51.194;5.112;2023-03-01T04:23:50;2.20;99.90
49829;DHT22;35723;51.194;5.112;2023-03-01T04:26:18;2.30;99.90
49829;DHT22;35723;51.194;5.112;2023-03-01T04:28:44;2.30;99.90
49829;DHT22;35723;51.194;5.112;2023-03-01T04:31:19;2.20;99.90
49829;DHT22;35723;51.194;5.112;2023-03-01T04:33:54;2.30;99.90
49829;DHT22;35723;51.194;5.112;2023-03-01T04:36:23;2.30;99.90
49829;DHT22;35723;51.194;5.112;2023-03-01T04:38:49;2.40;99.90
49829;DHT22;35723;51.194;5.112;2023-03-01T04:41:16;2.30;99.90
49829;DHT22;35723;51.194;5.112;2023-03-01T04:43:42;2.30;99.90
49829;DHT22;35723;51.194;5.112;2023-03-01T04:46:11;2.30;99.90
49829;DHT22;35723;51.194;5.112;2023-03-01T04:48:37;2.20;99.90
49829;DHT22;35723;51.194;5.112;2023-03-01T04:51:04;2.30;99.90
49829;DHT22;35723;51.194;5.112;2023-03-01T04:53:31;2.20;99.90
49829;DHT22;35723;51.194;5.112;2023-03-01T04:55:58;2.20;99.90
49829;DHT22;35723;51.194;5.112;2023-03-01T04:58:25;2.20;99.90
49829;DHT22;35723;51.194;5.112;2023-03-01T05:00:51;2.10;99.90
49829;DHT22;35723;51.194;5.112;2023-03-01T05:03:17;2.10;99.90
49829;DHT22;35723;51.194;5.112;2023-03-01T05:05:45;2.10;99.90
49829;DHT22;35723;51.194;5.112;2023-03-01T05:08:11;2.10;99.90
49829;DHT22;35723;51.194;5.112;2023-03-01T05:10:44;2.20;99.90
49829;DHT22;35723;51.194;5.112;2023-03-01T05:13:09;2.20;99.90
49829;DHT22;35723;51.194;5.112;2023-03-01T05:15:35;2.20;99.90
49829;DHT22;35723;51.194;5.112;2023-03-01T05:18:01;2.10;99.90
49829;DHT22;35723;51.194;5.112;2023-03-01T05:20:29;2.00;99.90
49829;DHT22;35723;51.194;5.112;2023-03-01T05:22:58;2.00;99.90
49829;DHT22;35723;51.194;5.112;2023-03-01T05:25:31;2.00;99.90
49829;DHT22;35723;51.194;5.112;2023-03-01T05:27:59;1.80;99.90
49829;DHT22;35723;51.194;5.112;2023-03-01T05:30:32;1.90;99.90
49829;DHT22;35723;51.194;5.112;2023-03-01T05:32:58;1.80;99.90
49829;DHT22;35723;51.194;5.112;2023-03-01T05:35:24;1.80;99.90
49829;DHT22;35723;51.194;5.112;2023-03-01T05:37:50;1.90;99.90
49829;DHT22;35723;51.194;5.112;2023-03-01T05:40:19;1.90;99.90
49829;DHT22;35723;51.194;5.112;2023-03-01T05:42:56;1.80;99.90
49829;DHT22;35723;51.194;5.112;2023-03-01T05:45:24;1.80;99.90
49829;DHT22;35723;51.194;5.112;2023-03-01T05:47:50;1.80;99.90
49829;DHT22;35723;51.194;5.112;2023-03-01T05:50:21;1.90;99.90
49829;DHT22;35723;51.194;5.112;2023-03-01T05:52:50;1.90;99.90
49829;DHT22;35723;51.194;5.112;2023-03-01T05:55:20;2.00;99.90
49829;DHT22;35723;51.194;5.112;2023-03-01T05:57:47;1.90;99.90
49829;DHT22;35723;51.194;5.112;2023-03-01T06:00:14;2.00;99.90
49829;DHT22;35723;51.194;5.112;2023-03-01T06:02:40;2.00;99.90
49829;DHT22;35723;51.194;5.112;2023-03-01T06:05:08;2.00;99.90
49829;DHT22;35723;51.194;5.112;2023-03-01T06:07:34;2.10;99.90
49829;DHT22;35723;51.194;5.112;2023-03-01T06:10:01;2.00;99.90
49829;DHT22;35723;51.194;5.112;2023-03-01T06:12:30;2.00;99.90
49829;DHT22;35723;51.194;5.112;2023-03-01T06:14:56;2.00;99.90
49829;DHT22;35723;51.194;5.112;2023-03-01T06:17:21;1.90;99.90
49829;DHT22;35723;51.194;5.112;2023-03-01T06:19:47;1.80;99.90
49829;DHT22;35723;51.194;5.112;2023-03-01T06:22:13;1.70;99.90
49829;DHT22;35723;51.194;5.112;2023-03-01T06:24:39;1.70;99.90
49829;DHT22;35723;51.194;5.112;2023-03-01T06:27:04;1.70;99.90
49829;DHT22;35723;51.194;5.112;2023-03-01T06:29:30;1.70;99.90
49829;DHT22;35723;51.194;5.112;2023-03-01T06:31:56;1.60;99.90
49829;DHT22;35723;51.194;5.112;2023-03-01T06:34:21;1.60;99.90
49829;DHT22;35723;51.194;5.112;2023-03-01T06:36:47;1.60;99.90
49829;DHT22;35723;51.194;5.112;2023-03-01T06:39:13;1.70;99.90
49829;DHT22;35723;51.194;5.112;2023-03-01T06:41:38;1.60;99.90
49829;DHT22;35723;51.194;5.112;2023-03-01T06:44:04;1.60;99.90
49829;DHT22;35723;51.194;5.112;2023-03-01T06:46:30;1.60;99.90
49829;DHT22;35723;51.194;5.112;2023-03-01T06:48:56;1.70;99.90
49829;DHT22;35723;51.194;5.112;2023-03-01T06:51:21;1.70;99.90
49829;DHT22;35723;51.194;5.112;2023-03-01T06:53:47;1.60;99.90
49829;DHT22;35723;51.194;5.112;2023-03-01T06:56:32;1.70;99.90
49829;DHT22;35723;51.194;5.112;2023-03-01T06:58:58;1.70;99.90
49829;DHT22;35723;51.194;5.112;2023-03-01T07:01:23;1.70;99.90
49829;DHT22;35723;51.194;5.112;2023-03-01T07:03:49;1.80;99.90
49829;DHT22;35723;51.194;5.112;2023-03-01T07:06:15;1.80;99.90
49829;DHT22;35723;51.194;5.112;2023-03-01T07:08:40;1.70;99.90
49829;DHT22;35723;51.194;5.112;2023-03-01T07:11:06;1.70;99.90
49829;DHT22;35723;51.194;5.112;2023-03-01T07:13:32;1.80;99.90
49829;DHT22;35723;51.194;5.112;2023-03-01T07:19:21;1.90;99.90
49829;DHT22;35723;51.194;5.112;2023-03-01T07:21:47;1.90;99.90
49829;DHT22;35723;51.194;5.112;2023-03-01T07:24:13;1.80;99.90
49829;DHT22;35723;51.194;5.112;2023-03-01T07:30:03;1.80;99.90
49829;DHT22;35723;51.194;5.112;2023-03-01T07:32:29;1.90;99.90
49829;DHT22;35723;51.194;5.112;2023-03-01T07:34:54;2.00;99.90
49829;DHT22;35723;51.194;5.112;2023-03-01T07:37:20;2.10;99.90
49829;DHT22;35723;51.194;5.112;2023-03-01T07:39:46;2.10;99.90
49829;DHT22;35723;51.194;5.112;2023-03-01T07:42:11;2.10;99.90
49829;DHT22;35723;51.194;5.112;2023-03-01T07:44:37;2.20;99.90
49829;DHT22;35723;51.194;5.112;2023-03-01T07:47:06;2.30;99.90
49829;DHT22;35723;51.194;5.112;2023-03-01T07:53:11;2.40;99.90
49829;DHT22;35723;51.194;5.112;2023-03-01T07:56:00;2.50;99.90
49829;DHT22;35723;51.194;5.112;2023-03-01T07:58:26;2.60;99.90
49829;DHT22;35723;51.194;5.112;2023-03-01T08:00:51;2.60;99.90
49829;DHT22;35723;51.194;5.112;2023-03-01T08:03:38;2.70;99.90
49829;DHT22;35723;51.194;5.112;2023-03-01T08:06:05;2.80;99.90
49829;DHT22;35723;51.194;5.112;2023-03-01T08:08:32;2.80;99.90
49829;DHT22;35723;51.194;5.112;2023-03-01T08:11:03;2.90;99.90
49829;DHT22;35723;51.194;5.112;2023-03-01T08:13:30;3.00;99.90
49829;DHT22;35723;51.194;5.112;2023-03-01T08:16:04;3.10;99.90
49829;DHT22;35723;51.194;5.112;2023-03-01T08:19:10;3.20;99.90
49829;DHT22;35723;51.194;5.112;2023-03-01T08:21:36;3.20;99.90
49829;DHT22;35723;51.194;5.112;2023-03-01T08:24:05;3.30;99.90
49829;DHT22;35723;51.194;5.112;2023-03-01T08:29:54;3.50;99.90
49829;DHT22;35723;51.194;5.112;2023-03-01T08:35:07;3.60;99.90
49829;DHT22;35723;51.194;5.112;2023-03-01T08:37:33;3.70;99.90
49829;DHT22;35723;51.194;5.112;2023-03-01T08:43:25;3.90;99.90
49829;DHT22;35723;51.194;5.112;2023-03-01T08:49:24;4.20;99.90
49829;DHT22;35723;51.194;5.112;2023-03-01T08:55:29;4.30;99.90
49829;DHT22;35723;51.194;5.112;2023-03-01T09:01:19;4.40;99.90
49829;DHT22;35723;51.194;5.112;2023-03-01T09:04:05;4.50;99.90
49829;DHT22;35723;51.194;5.112;2023-03-01T09:06:34;4.70;99.90
49829;DHT22;35723;51.194;5.112;2023-03-01T09:09:02;4.80;99.90
49829;DHT22;35723;51.194;5.112;2023-03-01T09:14:55;5.00;99.90
49829;DHT22;35723;51.194;5.112;2023-03-01T09:23:36;5.10;99.90
49829;DHT22;35723;51.194;5.112;2023-03-01T09:26:04;5.30;99.90
49829;DHT22;35723;51.194;5.112;2023-03-01T09:28:30;5.40;99.90
49829;DHT22;35723;51.194;5.112;2023-03-01T09:31:00;5.50;99.90
49829;DHT22;35723;51.194;5.112;2023-03-01T09:33:27;5.50;99.90
49829;DHT22;35723;51.194;5.112;2023-03-01T09:35:57;5.60;99.90
49829;DHT22;35723;51.194;5.112;2023-03-01T09:38:23;5.70;99.90
49829;DHT22;35723;51.194;5.112;2023-03-01T09:40:49;5.70;99.90
49829;DHT22;35723;51.194;5.112;2023-03-01T09:46:08;6.00;99.90
49829;DHT22;35723;51.194;5.112;2023-03-01T09:51:24;6.10;99.90
49829;DHT22;35723;51.194;5.112;2023-03-01T09:53:51;6.20;99.90
49829;DHT22;35723;51.194;5.112;2023-03-01T09:56:44;6.20;99.90
49829;DHT22;35723;51.194;5.112;2023-03-01T10:01:58;6.40;99.90
49829;DHT22;35723;51.194;5.112;2023-03-01T10:04:28;6.40;99.90
49829;DHT22;35723;51.194;5.112;2023-03-01T10:09:38;6.60;99.90
49829;DHT22;35723;51.194;5.112;2023-03-01T10:12:34;6.50;99.90
49829;DHT22;35723;51.194;5.112;2023-03-01T10:15:15;6.70;99.90
49829;DHT22;35723;51.194;5.112;2023-03-01T10:17:56;6.70;99.90
49829;DHT22;35723;51.194;5.112;2023-03-01T10:20:33;6.90;99.90
49829;DHT22;35723;51.194;5.112;2023-03-01T10:23:03;6.90;99.90
49829;DHT22;35723;51.194;5.112;2023-03-01T10:31:06;7.10;99.90
49829;DHT22;35723;51.194;5.112;2023-03-01T10:33:38;7.20;99.90
49829;DHT22;35723;51.194;5.112;2023-03-01T10:36:08;7.30;99.90
49829;DHT22;35723;51.194;5.112;2023-03-01T10:38:55;7.40;99.90
49829;DHT22;35723;51.194;5.112;2023-03-01T10:41:24;7.40;99.90
49829;DHT22;35723;51.194;5.112;2023-03-01T10:43:55;7.50;99.90
49829;DHT22;35723;51.194;5.112;2023-03-01T10:46:32;7.40;99.90
49829;DHT22;35723;51.194;5.112;2023-03-01T10:51:40;7.60;99.90
49829;DHT22;35723;51.194;5.112;2023-03-01T10:54:23;7.60;99.90
49829;DHT22;35723;51.194;5.112;2023-03-01T10:57:24;7.70;99.90
49829;DHT22;35723;51.194;5.112;2023-03-01T11:00:09;7.70;99.90
49829;DHT22;35723;51.194;5.112;2023-03-01T11:02:39;7.70;99.80
49829;DHT22;35723;51.194;5.112;2023-03-01T11:08:00;7.80;99.90
49829;DHT22;35723;51.194;5.112;2023-03-01T11:10:38;7.80;99.90
49829;DHT22;35723;51.194;5.112;2023-03-01T11:13:18;7.90;99.90
49829;DHT22;35723;51.194;5.112;2023-03-01T11:16:06;8.00;99.90
49829;DHT22;35723;51.194;5.112;2023-03-01T11:18:33;8.00;99.80
49829;DHT22;35723;51.194;5.112;2023-03-01T11:20:59;8.00;99.90
49829;DHT22;35723;51.194;5.112;2023-03-01T11:23:29;8.10;99.90
49829;DHT22;35723;51.194;5.112;2023-03-01T11:26:01;8.10;99.90
49829;DHT22;35723;51.194;5.112;2023-03-01T11:28:29;8.20;99.90
49829;DHT22;35723;51.194;5.112;2023-03-01T11:31:05;8.30;99.90
49829;DHT22;35723;51.194;5.112;2023-03-01T11:33:37;8.30;99.70
49829;DHT22;35723;51.194;5.112;2023-03-01T11:38:48;8.30;99.20
49829;DHT22;35723;51.194;5.112;2023-03-01T11:41:20;8.40;99.40
49829;DHT22;35723;51.194;5.112;2023-03-01T11:46:35;8.50;98.50
49829;DHT22;35723;51.194;5.112;2023-03-01T12:08:39;8.80;97.70
49829;DHT22;35723;51.194;5.112;2023-03-01T12:25:05;9.10;97.40
49829;DHT22;35723;51.194;5.112;2023-03-01T12:27:52;9.10;97.40
49829;DHT22;35723;51.194;5.112;2023-03-01T12:38:50;9.30;96.90
49829;DHT22;35723;51.194;5.112;2023-03-01T12:41:43;9.30;96.50
49829;DHT22;35723;51.194;5.112;2023-03-01T12:47:15;9.50;96.20
49829;DHT22;35723;51.194;5.112;2023-03-01T12:49:58;9.50;95.70
49829;DHT22;35723;51.194;5.112;2023-03-01T12:53:03;9.40;96.20
49829;DHT22;35723;51.194;5.112;2023-03-01T12:55:37;9.40;96.40
49829;DHT22;35723;51.194;5.112;2023-03-01T12:58:30;9.30;96.50
49829;DHT22;35723;51.194;5.112;2023-03-01T13:07:13;9.40;96.30
49829;DHT22;35723;51.194;5.112;2023-03-01T13:17:49;9.40;96.00
49829;DHT22;35723;51.194;5.112;2023-03-01T13:20:17;9.30;95.70
49829;DHT22;35723;51.194;5.112;2023-03-01T13:22:45;9.40;96.40
49829;DHT22;35723;51.194;5.112;2023-03-01T13:25:18;9.50;96.10
49829;DHT22;35723;51.194;5.112;2023-03-01T13:27:45;9.60;95.70
49829;DHT22;35723;51.194;5.112;2023-03-01T13:35:54;9.60;95.00
49829;DHT22;35723;51.194;5.112;2023-03-01T13:38:44;9.60;95.20
49829;DHT22;35723;51.194;5.112;2023-03-01T13:41:11;9.60;95.30
49829;DHT22;35723;51.194;5.112;2023-03-01T13:43:38;9.50;94.80
49829;DHT22;35723;51.194;5.112;2023-03-01T13:46:31;9.40;95.20
49829;DHT22;35723;51.194;5.112;2023-03-01T13:48:58;9.60;94.90
49829;DHT22;35723;51.194;5.112;2023-03-01T13:51:26;9.50;95.00
49829;DHT22;35723;51.194;5.112;2023-03-01T13:53:54;9.50;95.00
49829;DHT22;35723;51.194;5.112;2023-03-01T13:56:37;9.50;94.70
49829;DHT22;35723;51.194;5.112;2023-03-01T13:59:26;9.60;94.50
49829;DHT22;35723;51.194;5.112;2023-03-01T14:02:01;9.70;94.40
49829;DHT22;35723;51.194;5.112;2023-03-01T14:04:31;9.70;94.40
49829;DHT22;35723;51.194;5.112;2023-03-01T14:09:41;9.60;94.50
49829;DHT22;35723;51.194;5.112;2023-03-01T14:12:41;9.60;94.40
49829;DHT22;35723;51.194;5.112;2023-03-01T14:15:24;9.70;94.40
49829;DHT22;35723;51.194;5.112;2023-03-01T14:20:26;9.70;94.60
49829;DHT22;35723;51.194;5.112;2023-03-01T14:22:55;9.70;94.70
49829;DHT22;35723;51.194;5.112;2023-03-01T14:25:28;9.70;94.70
49829;DHT22;35723;51.194;5.112;2023-03-01T14:30:51;9.70;94.80
49829;DHT22;35723;51.194;5.112;2023-03-01T14:36:10;9.60;94.30
49829;DHT22;35723;51.194;5.112;2023-03-01T14:41:09;9.60;94.90
49829;DHT22;35723;51.194;5.112;2023-03-01T14:43:40;9.50;94.70
49829;DHT22;35723;51.194;5.112;2023-03-01T14:46:58;9.50;95.10
49829;DHT22;35723;51.194;5.112;2023-03-01T14:49:15;9.50;95.30
49829;DHT22;35723;51.194;5.112;2023-03-01T14:51:49;9.50;95.20
49829;DHT22;35723;51.194;5.112;2023-03-01T14:54:47;9.40;95.20
49829;DHT22;35723;51.194;5.112;2023-03-01T14:57:25;9.50;95.20
49829;DHT22;35723;51.194;5.112;2023-03-01T14:59:57;9.50;95.10
49829;DHT22;35723;51.194;5.112;2023-03-01T15:02:25;9.40;95.20
49829;DHT22;35723;51.194;5.112;2023-03-01T15:04:54;9.40;95.40
49829;DHT22;35723;51.194;5.112;2023-03-01T15:07:25;9.40;95.10
49829;DHT22;35723;51.194;5.112;2023-03-01T15:09:52;9.40;95.30
49829;DHT22;35723;51.194;5.112;2023-03-01T15:14:52;9.50;95.00
49829;DHT22;35723;51.194;5.112;2023-03-01T15:17:31;9.50;95.30
49829;DHT22;35723;51.194;5.112;2023-03-01T15:19:58;9.40;95.20
49829;DHT22;35723;51.194;5.112;2023-03-01T15:22:26;9.40;95.10
49829;DHT22;35723;51.194;5.112;2023-03-01T15:24:52;9.40;95.20
49829;DHT22;35723;51.194;5.112;2023-03-01T15:27:21;9.30;95.20
49829;DHT22;35723;51.194;5.112;2023-03-01T15:29:57;9.30;95.30
49829;DHT22;35723;51.194;5.112;2023-03-01T15:32:35;9.50;95.00
49829;DHT22;35723;51.194;5.112;2023-03-01T15:35:37;9.50;94.90
49829;DHT22;35723;51.194;5.112;2023-03-01T15:38:22;9.40;94.90
49829;DHT22;35723;51.194;5.112;2023-03-01T15:40:52;9.30;95.00
49829;DHT22;35723;51.194;5.112;2023-03-01T15:46:04;9.40;94.40
49829;DHT22;35723;51.194;5.112;2023-03-01T15:48:29;9.30;94.40
49829;DHT22;35723;51.194;5.112;2023-03-01T15:50:57;9.20;94.50
49829;DHT22;35723;51.194;5.112;2023-03-01T15:53:24;9.20;94.50
49829;DHT22;35723;51.194;5.112;2023-03-01T15:55:52;9.20;94.50
49829;DHT22;35723;51.194;5.112;2023-03-01T15:58:23;9.10;94.60
49829;DHT22;35723;51.194;5.112;2023-03-01T16:00:49;9.10;94.80
49829;DHT22;35723;51.194;5.112;2023-03-01T16:03:21;9.00;94.90
49829;DHT22;35723;51.194;5.112;2023-03-01T16:05:48;9.00;94.50
49829;DHT22;35723;51.194;5.112;2023-03-01T16:08:16;9.00;94.70
49829;DHT22;35723;51.194;5.112;2023-03-01T16:10:42;9.00;94.60
49829;DHT22;35723;51.194;5.112;2023-03-01T16:13:14;9.00;94.70
49829;DHT22;35723;51.194;5.112;2023-03-01T16:15:40;8.90;94.60
49829;DHT22;35723;51.194;5.112;2023-03-01T16:18:06;9.00;94.60
49829;DHT22;35723;51.194;5.112;2023-03-01T16:20:33;9.00;94.60
49829;DHT22;35723;51.194;5.112;2023-03-01T16:23:01;9.00;94.40
49829;DHT22;35723;51.194;5.112;2023-03-01T16:25:28;8.90;94.40
49829;DHT22;35723;51.194;5.112;2023-03-01T16:27:53;8.90;94.50
49829;DHT22;35723;51.194;5.112;2023-03-01T16:30:21;8.90;94.60
49829;DHT22;35723;51.194;5.112;2023-03-01T16:32:48;8.80;94.70
49829;DHT22;35723;51.194;5.112;2023-03-01T16:35:17;8.80;94.80
49829;DHT22;35723;51.194;5.112;2023-03-01T16:37:43;8.70;94.70
49829;DHT22;35723;51.194;5.112;2023-03-01T16:40:21;8.70;94.80
49829;DHT22;35723;51.194;5.112;2023-03-01T16:42:50;8.80;94.80
49829;DHT22;35723;51.194;5.112;2023-03-01T16:45:17;8.70;94.80
49829;DHT22;35723;51.194;5.112;2023-03-01T16:47:43;8.70;94.80
49829;DHT22;35723;51.194;5.112;2023-03-01T16:50:09;8.70;94.90
49829;DHT22;35723;51.194;5.112;2023-03-01T16:52:36;8.60;95.10
49829;DHT22;35723;51.194;5.112;2023-03-01T16:55:06;8.50;95.20
49829;DHT22;35723;51.194;5.112;2023-03-01T16:57:34;8.50;95.50
49829;DHT22;35723;51.194;5.112;2023-03-01T17:00:00;8.50;95.60
49829;DHT22;35723;51.194;5.112;2023-03-01T17:02:26;8.40;95.70
49829;DHT22;35723;51.194;5.112;2023-03-01T17:04:53;8.30;95.70
49829;DHT22;35723;51.194;5.112;2023-03-01T17:07:19;8.30;95.80
49829;DHT22;35723;51.194;5.112;2023-03-01T17:09:45;8.40;95.70
49829;DHT22;35723;51.194;5.112;2023-03-01T17:12:14;8.30;95.70
49829;DHT22;35723;51.194;5.112;2023-03-01T17:14:41;8.30;95.90
49829;DHT22;35723;51.194;5.112;2023-03-01T17:17:10;8.20;96.00
49829;DHT22;35723;51.194;5.112;2023-03-01T17:19:36;8.20;96.20
49829;DHT22;35723;51.194;5.112;2023-03-01T17:22:07;8.10;96.20
49829;DHT22;35723;51.194;5.112;2023-03-01T17:24:37;8.00;95.70
49829;DHT22;35723;51.194;5.112;2023-03-01T17:27:04;7.70;96.20
49829;DHT22;35723;51.194;5.112;2023-03-01T17:29:30;7.60;96.60
49829;DHT22;35723;51.194;5.112;2023-03-01T17:31:56;7.50;96.90
49829;DHT22;35723;51.194;5.112;2023-03-01T17:34:22;7.50;97.10
49829;DHT22;35723;51.194;5.112;2023-03-01T17:36:48;7.60;97.10
49829;DHT22;35723;51.194;5.112;2023-03-01T17:39:19;7.50;97.10
49829;DHT22;35723;51.194;5.112;2023-03-01T17:41:50;7.60;97.20
49829;DHT22;35723;51.194;5.112;2023-03-01T17:44:16;7.60;97.20
49829;DHT22;35723;51.194;5.112;2023-03-01T17:46:42;7.40;97.20
49829;DHT22;35723;51.194;5.112;2023-03-01T17:49:07;7.50;97.40
49829;DHT22;35723;51.194;5.112;2023-03-01T17:51:33;7.40;97.70
49829;DHT22;35723;51.194;5.112;2023-03-01T17:53:59;7.30;97.50
49829;DHT22;35723;51.194;5.112;2023-03-01T17:56:24;7.30;97.60
49829;DHT22;35723;51.194;5.112;2023-03-01T17:58:50;7.30;97.70
49829;DHT22;35723;51.194;5.112;2023-03-01T18:01:18;7.40;97.50
49829;DHT22;35723;51.194;5.112;2023-03-01T18:03:44;7.30;97.60
49829;DHT22;35723;51.194;5.112;2023-03-01T18:06:15;7.30;97.60
49829;DHT22;35723;51.194;5.112;2023-03-01T18:08:41;7.30;97.70
49829;DHT22;35723;51.194;5.112;2023-03-01T18:11:08;7.20;97.70
49829;DHT22;35723;51.194;5.112;2023-03-01T18:13:34;7.10;97.90
49829;DHT22;35723;51.194;5.112;2023-03-01T18:16:04;7.00;98.30
49829;DHT22;35723;51.194;5.112;2023-03-01T18:18:30;7.00;97.80
49829;DHT22;35723;51.194;5.112;2023-03-01T18:20:57;6.80;98.30
49829;DHT22;35723;51.194;5.112;2023-03-01T18:23:23;6.90;98.30
49829;DHT22;35723;51.194;5.112;2023-03-01T18:25:49;6.80;98.10
49829;DHT22;35723;51.194;5.112;2023-03-01T18:28:15;6.80;98.30
49829;DHT22;35723;51.194;5.112;2023-03-01T18:30:41;6.70;98.50
49829;DHT22;35723;51.194;5.112;2023-03-01T18:33:07;6.80;98.20
49829;DHT22;35723;51.194;5.112;2023-03-01T18:35:35;6.70;98.50
49829;DHT22;35723;51.194;5.112;2023-03-01T18:38:01;6.70;98.40
49829;DHT22;35723;51.194;5.112;2023-03-01T18:40:28;6.60;98.70
49829;DHT22;35723;51.194;5.112;2023-03-01T18:42:54;6.60;98.50